Terminal Aerodrome Forecast
Issued by NWS

Home | Current Version | Previous Version | Graphics & Text | Print | Product List | Glossary On
Versions: 1 2 3 4 5 6 7 8 9 10 11 12 13 14 15 16 17 18 19 20 21 22
203
FTUS41 KCLE 280533
TAFFDY
TAF
KFDY 280533Z 2806/2906 24005KT P6SM SCT035 BKN200
     FM280900 18007KT P6SM BKN200
     FM282300 10005KT P6SM OVC110
     FM290300 15008KT 6SM -SHRA OVC020=

USA.gov is the U.S. government's official web portal to all federal, state and local government web resources and services.